createdAt,value
2017-12-27T00:01:25.104Z,90.60
2017-12-27T00:03:58.253Z,90.60
2017-12-27T00:06:32.148Z,90.60
2017-12-27T00:09:05.912Z,90.70
2017-12-27T00:11:39.122Z,90.60
2017-12-27T00:14:12.319Z,90.60
2017-12-27T00:16:45.676Z,90.70
2017-12-27T00:19:18.785Z,90.60
2017-12-27T00:21:51.953Z,90.60
2017-12-27T00:24:25.104Z,90.50
2017-12-27T00:26:59.076Z,90.50
2017-12-27T00:29:32.281Z,90.50
2017-12-27T00:31:59.221Z,90.50
2017-12-27T00:34:26.750Z,90.50
2017-12-27T00:36:54.186Z,90.50
2017-12-27T00:39:21.644Z,90.50
2017-12-27T00:41:49.072Z,90.40
2017-12-27T00:44:16.598Z,90.40
2017-12-27T00:46:44.029Z,90.40
2017-12-27T00:49:11.490Z,90.40
2017-12-27T00:51:39.689Z,90.70
2017-12-27T00:54:07.153Z,90.30
2017-12-27T00:56:34.581Z,90.30
2017-12-27T00:59:02.164Z,90.30
2017-12-27T01:01:29.604Z,90.30
2017-12-27T01:03:57.060Z,90.20
2017-12-27T01:06:24.528Z,90.20
2017-12-27T01:08:51.963Z,90.20
2017-12-27T01:11:25.452Z,90.10
2017-12-27T01:13:53.660Z,90.10
2017-12-27T01:16:21.102Z,90.00
2017-12-27T01:18:48.716Z,90.00
2017-12-27T01:21:16.152Z,90.00
2017-12-27T01:23:43.606Z,89.70
2017-12-27T01:26:11.039Z,89.90
2017-12-27T01:28:38.501Z,89.90
2017-12-27T01:31:05.925Z,89.90
2017-12-27T01:33:34.164Z,90.00
2017-12-27T01:36:01.598Z,90.00
2017-12-27T01:44:21.325Z,90.10
2017-12-27T01:49:43.572Z,89.60
2017-12-27T01:52:11.006Z,89.60
2017-12-27T01:54:38.632Z,89.70
2017-12-27T01:57:06.069Z,89.60
2017-12-27T01:59:33.524Z,89.60
2017-12-27T02:02:00.953Z,89.50
2017-12-27T02:04:28.410Z,89.60
2017-12-27T02:06:55.836Z,89.60
2017-12-27T02:09:25.027Z,89.60
2017-12-27T02:11:53.504Z,89.60
2017-12-27T02:14:21.776Z,89.60
2017-12-27T02:16:49.201Z,89.60
2017-12-27T02:19:16.656Z,89.60
2017-12-27T02:21:45.048Z,89.70
2017-12-27T02:24:12.535Z,89.70
2017-12-27T02:26:40.756Z,89.70
2017-12-27T02:29:08.212Z,89.50
2017-12-27T02:31:35.796Z,89.60
2017-12-27T02:34:03.268Z,89.60
2017-12-27T02:36:30.700Z,89.50
2017-12-27T02:38:58.156Z,89.40
2017-12-27T02:41:25.625Z,89.40
2017-12-27T02:43:53.084Z,89.40
2017-12-27T02:46:20.525Z,89.20
2017-12-27T02:48:48.112Z,89.20
2017-12-27T02:51:15.552Z,89.10
2017-12-27T02:53:42.984Z,89.00
2017-12-27T02:56:10.493Z,88.90
2017-12-27T02:58:37.922Z,88.80
2017-12-27T03:01:06.320Z,88.80
2017-12-27T03:03:34.169Z,88.60
2017-12-27T03:06:01.602Z,88.60
2017-12-27T03:08:29.061Z,88.20
2017-12-27T03:10:56.492Z,88.30
2017-12-27T03:13:24.804Z,88.00
2017-12-27T03:15:52.257Z,88.00
2017-12-27T03:18:19.728Z,87.80
2017-12-27T03:20:47.156Z,87.60
2017-12-27T03:23:15.578Z,87.40
2017-12-27T03:25:43.333Z,87.40
2017-12-27T03:28:10.930Z,87.50
2017-12-27T03:30:38.361Z,87.30
2017-12-27T03:33:05.821Z,87.10
2017-12-27T03:35:33.260Z,87.00
2017-12-27T03:38:00.689Z,87.00
2017-12-27T03:40:28.245Z,86.70
2017-12-27T03:42:55.673Z,86.60
2017-12-27T03:45:23.926Z,86.10
2017-12-27T03:47:57.444Z,86.40
2017-12-27T03:50:24.892Z,86.30
2017-12-27T03:52:52.355Z,86.20
2017-12-27T03:55:19.785Z,86.00
2017-12-27T03:57:47.328Z,85.90
2017-12-27T04:00:14.772Z,85.90
2017-12-27T04:02:42.238Z,85.70
2017-12-27T04:05:09.678Z,85.70
2017-12-27T04:07:37.147Z,85.50
2017-12-27T04:10:04.578Z,85.30
2017-12-27T04:15:29.601Z,85.40
2017-12-27T04:17:57.808Z,85.10
2017-12-27T04:20:25.272Z,85.20
2017-12-27T04:22:52.707Z,84.90
2017-12-27T04:25:20.164Z,85.10
2017-12-27T04:27:47.597Z,85.00
2017-12-27T04:30:15.905Z,84.80
2017-12-27T04:32:43.332Z,84.80
2017-12-27T04:35:11.524Z,84.60
2017-12-27T04:37:39.117Z,84.60
2017-12-27T04:40:06.547Z,84.60
2017-12-27T04:42:34.009Z,84.60
2017-12-27T04:45:01.433Z,84.50
2017-12-27T04:47:29.656Z,84.60
2017-12-27T04:49:57.140Z,84.60
2017-12-27T04:52:24.585Z,84.50
2017-12-27T04:54:52.013Z,84.30
2017-12-27T04:57:23.188Z,84.30
2017-12-27T04:59:50.630Z,84.30
2017-12-27T05:02:18.820Z,84.40
2017-12-27T05:04:46.275Z,84.40
2017-12-27T05:07:13.713Z,84.40
2017-12-27T05:09:41.281Z,84.10
2017-12-27T05:12:08.772Z,84.10
2017-12-27T05:14:36.209Z,84.00
2017-12-27T05:17:03.668Z,84.00
2017-12-27T05:19:33.134Z,83.90
2017-12-27T05:22:00.602Z,83.80
2017-12-27T05:24:28.027Z,83.80
2017-12-27T05:26:56.322Z,83.60
2017-12-27T05:29:23.804Z,83.60
2017-12-27T05:31:51.228Z,83.40
2017-12-27T05:34:19.425Z,83.40
2017-12-27T05:36:46.881Z,83.40
2017-12-27T05:39:14.320Z,83.10
2017-12-27T05:41:42.645Z,83.30
2017-12-27T05:44:10.073Z,83.30
2017-12-27T05:46:37.534Z,83.30
2017-12-27T05:49:04.960Z,83.30
2017-12-27T05:51:33.316Z,83.40
2017-12-27T05:54:00.756Z,83.30
2017-12-27T05:56:28.193Z,83.40
2017-12-27T05:59:00.788Z,83.40
2017-12-27T06:01:28.281Z,83.30
2017-12-27T06:03:56.471Z,84.20
2017-12-27T06:06:24.678Z,83.60
2017-12-27T06:08:52.126Z,84.30
2017-12-27T06:11:19.548Z,83.60
2017-12-27T06:13:47.940Z,83.90
2017-12-27T06:16:16.332Z,84.00
2017-12-27T06:18:43.769Z,84.00
2017-12-27T06:21:11.967Z,84.10
2017-12-27T06:23:42.120Z,84.10
2017-12-27T06:26:09.563Z,84.10
2017-12-27T06:28:36.989Z,84.20
2017-12-27T06:31:04.449Z,84.30
2017-12-27T06:33:32.768Z,84.50
2017-12-27T06:36:03.912Z,84.50
2017-12-27T06:38:31.373Z,84.60
2017-12-27T06:40:58.785Z,84.80
2017-12-27T06:43:28.183Z,84.80
2017-12-27T06:45:56.389Z,85.00
2017-12-27T06:48:23.876Z,85.00
2017-12-27T06:50:51.300Z,85.10
2017-12-27T06:53:19.801Z,85.30
2017-12-27T06:55:47.233Z,85.30
2017-12-27T06:58:15.683Z,85.30
2017-12-27T07:00:43.945Z,85.50
2017-12-27T07:03:11.379Z,85.50
2017-12-27T07:05:38.818Z,85.50
2017-12-27T07:08:06.328Z,85.60
2017-12-27T07:10:33.765Z,85.80
2017-12-27T07:13:01.474Z,85.90
2017-12-27T07:15:29.014Z,86.10
2017-12-27T07:17:57.237Z,86.40
2017-12-27T07:20:24.708Z,86.40
2017-12-27T07:22:52.170Z,86.40
2017-12-27T07:25:19.682Z,86.60
2017-12-27T07:27:48.038Z,86.80
2017-12-27T07:30:16.236Z,86.90
2017-12-27T07:32:44.593Z,87.00
2017-12-27T07:35:12.787Z,87.30
2017-12-27T07:37:49.305Z,87.10
2017-12-27T07:40:16.742Z,87.40
2017-12-27T07:42:44.225Z,87.60
2017-12-27T07:45:11.670Z,87.70
2017-12-27T07:47:39.204Z,88.00
2017-12-27T07:50:06.717Z,88.10
2017-12-27T07:52:34.149Z,88.20
2017-12-27T07:55:01.615Z,88.40
2017-12-27T07:57:34.269Z,88.50
2017-12-27T08:00:01.782Z,88.80
2017-12-27T08:02:29.992Z,89.00
2017-12-27T08:04:57.469Z,89.00
2017-12-27T08:07:24.924Z,89.10
2017-12-27T08:09:52.414Z,89.30
2017-12-27T08:12:19.881Z,89.40
2017-12-27T08:14:48.206Z,90.00
2017-12-27T08:17:15.629Z,89.80
2017-12-27T08:19:43.833Z,90.00
2017-12-27T08:22:11.473Z,90.00
2017-12-27T08:24:38.914Z,90.00
2017-12-27T08:27:06.678Z,90.10
2017-12-27T08:29:34.120Z,90.20
2017-12-27T08:32:01.556Z,90.30
2017-12-27T08:34:29.024Z,90.30
2017-12-27T08:36:56.476Z,90.40
2017-12-27T08:39:23.913Z,90.40
2017-12-27T08:41:51.780Z,90.50
2017-12-27T08:44:19.216Z,90.50
2017-12-27T08:46:46.644Z,90.60
2017-12-27T08:49:14.869Z,90.70
2017-12-27T08:51:42.310Z,90.70
2017-12-27T08:54:09.776Z,90.80
2017-12-27T08:56:37.235Z,90.80
2017-12-27T08:59:04.703Z,90.90
2017-12-27T09:01:32.141Z,90.90
2017-12-27T09:03:59.688Z,91.00
2017-12-27T09:06:27.124Z,91.10
2017-12-27T09:08:55.333Z,91.10
2017-12-27T09:11:22.816Z,91.10
2017-12-27T09:13:51.213Z,91.20
2017-12-27T09:16:18.691Z,91.20
2017-12-27T09:18:46.896Z,91.30
2017-12-27T09:21:14.320Z,91.30
2017-12-27T09:23:45.616Z,91.30
2017-12-27T09:26:17.109Z,91.30
2017-12-27T09:28:44.576Z,91.30
2017-12-27T09:31:12.059Z,91.30
2017-12-27T09:33:46.320Z,91.40
2017-12-27T09:36:13.818Z,91.40
2017-12-27T09:38:42.032Z,91.50
2017-12-27T09:41:10.241Z,91.50
2017-12-27T09:43:37.993Z,91.50
2017-12-27T09:46:05.428Z,91.50
2017-12-27T09:48:32.901Z,91.50
2017-12-27T09:51:00.344Z,91.50
2017-12-27T09:53:28.789Z,91.50
2017-12-27T09:55:56.828Z,91.60
2017-12-27T09:58:24.315Z,91.60
2017-12-27T10:00:52.520Z,91.60
2017-12-27T10:03:19.959Z,91.70
2017-12-27T10:05:48.280Z,91.80
2017-12-27T10:08:15.753Z,91.80
2017-12-27T10:10:43.194Z,91.80
2017-12-27T10:13:12.888Z,91.70
2017-12-27T10:15:40.324Z,91.60
2017-12-27T10:18:07.764Z,91.60
2017-12-27T10:20:35.996Z,91.70
2017-12-27T10:23:03.420Z,91.70
2017-12-27T10:25:30.848Z,91.80
2017-12-27T10:28:01.920Z,91.80
2017-12-27T10:30:29.352Z,91.80
2017-12-27T10:32:59.460Z,91.90
2017-12-27T10:35:26.921Z,91.90
2017-12-27T10:37:54.356Z,91.90
2017-12-27T10:40:28.584Z,92.00
2017-12-27T10:42:56.025Z,92.00
2017-12-27T10:45:28.617Z,92.00
2017-12-27T10:47:56.054Z,92.10
2017-12-27T10:50:23.539Z,92.10
2017-12-27T10:52:50.967Z,92.10
2017-12-27T10:55:18.405Z,92.20
2017-12-27T10:57:45.909Z,92.20
2017-12-27T11:00:13.372Z,92.20
2017-12-27T11:02:41.144Z,92.20
2017-12-27T11:05:08.541Z,92.30
2017-12-27T11:07:35.976Z,92.30
2017-12-27T11:10:03.437Z,92.30
2017-12-27T11:12:30.878Z,92.40
2017-12-27T11:14:59.098Z,92.50
2017-12-27T11:17:27.292Z,92.50
2017-12-27T11:19:54.889Z,92.50
2017-12-27T11:22:23.094Z,92.50
2017-12-27T11:24:51.180Z,92.50
2017-12-27T11:27:18.594Z,92.50
2017-12-27T11:29:48.088Z,92.60
2017-12-27T11:32:15.532Z,92.60
2017-12-27T11:34:42.955Z,92.60
2017-12-27T11:37:10.384Z,92.60
2017-12-27T11:39:38.054Z,92.60
2017-12-27T11:42:06.247Z,92.60
2017-12-27T11:44:33.676Z,92.60
2017-12-27T11:47:01.129Z,92.70
2017-12-27T11:49:29.339Z,92.70
2017-12-27T11:51:56.828Z,92.70
2017-12-27T11:54:24.266Z,92.60
2017-12-27T11:56:51.704Z,92.70
2017-12-27T11:59:19.325Z,92.60
2017-12-27T12:01:47.535Z,92.70
2017-12-27T12:04:14.964Z,92.70
2017-12-27T12:06:43.220Z,92.70
2017-12-27T12:09:10.654Z,92.70
2017-12-27T12:11:38.088Z,92.70
2017-12-27T12:14:06.556Z,92.60
2017-12-27T12:16:33.997Z,92.60
2017-12-27T12:19:02.200Z,92.60
2017-12-27T12:21:30.436Z,92.60
2017-12-27T12:23:58.627Z,92.90
2017-12-27T12:26:26.437Z,92.60
2017-12-27T12:28:53.860Z,92.50
2017-12-27T12:31:21.446Z,92.60
2017-12-27T12:33:48.928Z,92.60
2017-12-27T12:36:20.058Z,92.60
2017-12-27T12:38:47.496Z,92.60
2017-12-27T12:41:14.968Z,92.50
2017-12-27T12:43:42.402Z,92.50
2017-12-27T12:46:09.831Z,92.50
2017-12-27T12:48:38.427Z,92.50
2017-12-27T12:51:06.673Z,92.40
2017-12-27T12:53:34.131Z,92.40
2017-12-27T12:56:01.562Z,92.40
2017-12-27T12:58:29.112Z,92.50
2017-12-27T13:00:56.550Z,92.40
2017-12-27T13:03:23.992Z,92.40
2017-12-27T13:05:51.592Z,92.40
2017-12-27T13:08:19.045Z,92.40
2017-12-27T13:10:46.464Z,92.30
2017-12-27T13:13:14.160Z,92.40
2017-12-27T13:15:41.598Z,92.40
2017-12-27T13:18:09.024Z,92.30
2017-12-27T13:20:37.580Z,92.30
2017-12-27T13:23:05.041Z,92.60
2017-12-27T13:25:32.517Z,92.30
2017-12-27T13:28:00.030Z,92.30
2017-12-27T13:30:27.525Z,92.30
2017-12-27T13:32:55.000Z,92.30
2017-12-27T13:35:23.197Z,92.20
2017-12-27T13:37:50.725Z,92.20
2017-12-27T13:40:18.152Z,92.20
2017-12-27T13:42:45.844Z,92.00
2017-12-27T13:45:13.285Z,92.20
2017-12-27T13:47:40.719Z,92.10
2017-12-27T13:50:08.322Z,92.20
2017-12-27T13:52:35.756Z,92.20
2017-12-27T13:55:03.199Z,92.20
2017-12-27T13:57:30.956Z,92.20
2017-12-27T13:59:58.387Z,92.20
2017-12-27T14:02:25.821Z,92.20
2017-12-27T14:04:54.189Z,92.20
2017-12-27T14:07:21.630Z,92.20
2017-12-27T14:09:49.082Z,92.20
2017-12-27T14:12:16.532Z,92.20
2017-12-27T14:14:44.294Z,92.20
2017-12-27T14:17:11.732Z,92.30
2017-12-27T14:19:39.189Z,92.20
2017-12-27T14:22:06.625Z,92.20
2017-12-27T14:24:34.084Z,92.20
2017-12-27T14:27:01.552Z,92.20
2017-12-27T14:29:29.005Z,92.20
2017-12-27T14:31:57.197Z,92.20
2017-12-27T14:34:24.633Z,92.20
2017-12-27T14:36:52.153Z,92.20
2017-12-27T14:39:19.611Z,92.20
2017-12-27T14:41:47.073Z,92.20
2017-12-27T14:44:14.616Z,92.20
2017-12-27T14:46:42.116Z,92.20
2017-12-27T14:49:09.564Z,92.30
2017-12-27T14:51:37.001Z,92.30
2017-12-27T14:54:04.605Z,92.30
2017-12-27T14:56:32.040Z,92.30
2017-12-27T14:59:00.262Z,92.30
2017-12-27T15:01:27.709Z,92.30
2017-12-27T15:03:55.425Z,92.30
2017-12-27T15:06:22.823Z,92.30
2017-12-27T15:08:50.277Z,92.30
2017-12-27T15:11:17.721Z,92.30
2017-12-27T15:13:45.196Z,92.30
2017-12-27T15:16:12.620Z,92.30
2017-12-27T15:18:40.840Z,92.30
2017-12-27T15:21:08.620Z,92.30
2017-12-27T15:23:36.060Z,92.30
2017-12-27T15:26:03.492Z,92.30
2017-12-27T15:28:30.949Z,92.30
2017-12-27T15:30:58.423Z,92.30
2017-12-27T15:33:25.857Z,92.40
2017-12-27T15:35:54.243Z,92.60
2017-12-27T15:38:22.448Z,92.60
2017-12-27T15:40:49.898Z,92.60
2017-12-27T15:43:17.360Z,92.60
2017-12-27T15:45:46.168Z,92.60
2017-12-27T15:48:14.069Z,92.70
2017-12-27T15:50:42.269Z,92.50
2017-12-27T15:53:09.703Z,92.50
2017-12-27T15:55:37.997Z,92.50
2017-12-27T15:58:06.225Z,92.50
2017-12-27T16:00:33.660Z,92.50
2017-12-27T16:03:01.174Z,92.50
2017-12-27T16:05:29.383Z,92.60
2017-12-27T16:07:56.939Z,92.60
2017-12-27T16:10:24.376Z,92.70
2017-12-27T16:12:52.594Z,92.80
2017-12-27T16:15:20.331Z,92.80
2017-12-27T16:17:47.809Z,92.70
2017-12-27T16:20:15.236Z,92.80
2017-12-27T16:22:42.787Z,92.90
2017-12-27T16:25:12.873Z,93.00
2017-12-27T16:27:40.305Z,93.00
2017-12-27T16:30:07.754Z,93.10
2017-12-27T16:32:35.228Z,93.10
2017-12-27T16:35:12.475Z,93.20
2017-12-27T16:37:40.376Z,93.20
2017-12-27T16:40:07.854Z,93.30
2017-12-27T16:42:35.292Z,93.30
2017-12-27T16:45:03.998Z,93.30
2017-12-27T16:47:31.428Z,93.40
2017-12-27T16:49:58.900Z,93.40
2017-12-27T16:52:27.026Z,93.40
2017-12-27T16:57:45.904Z,93.50
2017-12-27T17:00:15.406Z,93.50
2017-12-27T17:02:43.613Z,93.50
2017-12-27T17:05:11.124Z,93.50
2017-12-27T17:07:39.480Z,93.60
2017-12-27T17:10:06.953Z,93.60
2017-12-27T17:12:34.408Z,93.60
2017-12-27T17:15:01.853Z,93.60
2017-12-27T17:17:29.682Z,93.60
2017-12-27T17:19:57.116Z,93.60
2017-12-27T17:22:25.490Z,93.70
2017-12-27T17:24:53.711Z,93.70
2017-12-27T17:27:21.144Z,93.70
2017-12-27T17:29:48.604Z,93.70
2017-12-27T17:32:16.160Z,93.70
2017-12-27T17:34:43.683Z,93.70
2017-12-27T17:37:11.121Z,93.70
2017-12-27T17:39:42.257Z,93.70
2017-12-27T17:42:09.696Z,93.70
2017-12-27T17:44:37.236Z,93.80
2017-12-27T17:47:04.683Z,93.80
2017-12-27T17:49:32.902Z,93.80
2017-12-27T17:52:00.664Z,93.80
2017-12-27T17:54:28.102Z,93.80
2017-12-27T17:56:55.532Z,93.80
2017-12-27T17:59:23.763Z,93.80
2017-12-27T18:01:51.232Z,93.80
2017-12-27T18:04:18.665Z,93.80
2017-12-27T18:06:47.537Z,93.80
2017-12-27T18:09:14.981Z,93.80
2017-12-27T18:11:42.476Z,93.80
2017-12-27T18:14:10.065Z,93.70
2017-12-27T18:16:37.505Z,93.70
2017-12-27T18:19:05.068Z,94.00
2017-12-27T18:21:32.725Z,93.70
2017-12-27T18:24:00.289Z,93.70
2017-12-27T18:26:27.749Z,93.70
2017-12-27T18:28:55.313Z,93.70
2017-12-27T18:31:22.748Z,94.10
2017-12-27T18:33:50.198Z,93.80
2017-12-27T18:36:17.804Z,93.80
2017-12-27T18:38:45.249Z,93.70
2017-12-27T18:41:33.273Z,94.10
2017-12-27T18:44:00.704Z,93.80
2017-12-27T18:46:28.252Z,93.70
2017-12-27T18:48:55.689Z,93.80
2017-12-27T18:51:24.042Z,93.80
2017-12-27T18:53:51.486Z,93.80
2017-12-27T18:56:18.953Z,93.80
2017-12-27T18:58:46.443Z,93.80
2017-12-27T19:01:14.666Z,93.80
2017-12-27T19:03:42.133Z,93.80
2017-12-27T19:06:13.498Z,93.80
2017-12-27T19:08:41.207Z,93.80
2017-12-27T19:11:08.692Z,93.90
2017-12-27T19:13:36.122Z,93.90
2017-12-27T19:16:13.645Z,93.90
2017-12-27T19:18:41.143Z,93.90
2017-12-27T19:21:09.336Z,94.00
2017-12-27T19:23:36.941Z,94.00
2017-12-27T19:26:04.388Z,94.00
2017-12-27T19:28:31.844Z,94.00
2017-12-27T19:30:59.513Z,94.00
2017-12-27T19:33:29.724Z,93.90
2017-12-27T19:35:57.966Z,94.00
2017-12-27T19:38:26.296Z,94.00
2017-12-27T19:40:53.754Z,94.00
2017-12-27T19:43:21.189Z,94.00
2017-12-27T19:45:48.743Z,94.00
2017-12-27T19:48:16.390Z,94.00
2017-12-27T19:50:43.921Z,94.10
2017-12-27T19:53:11.396Z,94.10
2017-12-27T19:55:38.848Z,94.10
2017-12-27T19:58:07.114Z,94.20
2017-12-27T20:00:34.586Z,94.20
2017-12-27T20:03:02.950Z,94.20
2017-12-27T20:05:30.430Z,94.20
2017-12-27T20:07:58.745Z,94.20
2017-12-27T20:10:26.246Z,94.20
2017-12-27T20:12:53.785Z,94.20
2017-12-27T20:15:21.312Z,94.20
2017-12-27T20:33:09.266Z,94.30
2017-12-27T20:35:36.902Z,94.20
2017-12-27T20:38:04.458Z,94.20
2017-12-27T20:40:32.109Z,94.20
2017-12-27T20:43:00.498Z,94.30
2017-12-27T20:45:28.754Z,94.30
2017-12-27T20:47:56.993Z,94.30
2017-12-27T20:50:24.438Z,94.30
2017-12-27T20:52:56.032Z,94.30
2017-12-27T20:55:24.241Z,94.60
2017-12-27T20:57:51.714Z,94.40
2017-12-27T21:00:20.135Z,94.40
2017-12-27T21:02:47.563Z,94.40
2017-12-27T21:05:15.024Z,94.40
2017-12-27T21:07:42.460Z,94.40
2017-12-27T21:10:20.128Z,94.40
2017-12-27T21:12:49.329Z,94.40
2017-12-27T21:15:17.537Z,94.30
2017-12-27T21:17:44.972Z,94.30
2017-12-27T21:20:12.446Z,94.30
2017-12-27T21:22:39.884Z,94.30
2017-12-27T21:25:07.515Z,94.30
2017-12-27T21:27:34.944Z,94.30
2017-12-27T21:30:02.385Z,94.30
2017-12-27T21:32:29.977Z,94.20
2017-12-27T21:34:57.461Z,94.30
2017-12-27T21:37:25.673Z,94.20
2017-12-27T21:39:53.245Z,94.20
2017-12-27T21:42:20.689Z,94.20
2017-12-27T21:44:49.837Z,94.20
2017-12-27T21:47:23.062Z,94.20
2017-12-27T21:49:57.089Z,94.20
2017-12-27T21:52:24.600Z,94.10
2017-12-27T21:54:52.040Z,94.10
2017-12-27T21:57:30.553Z,94.10
2017-12-27T22:00:03.629Z,94.40
2017-12-27T22:02:37.304Z,94.00
2017-12-27T22:05:04.744Z,94.00
2017-12-27T22:07:32.976Z,93.90
2017-12-27T22:10:00.420Z,93.90
2017-12-27T22:12:27.862Z,93.80
2017-12-27T22:14:55.364Z,93.80
2017-12-27T22:17:22.830Z,93.90
2017-12-27T22:19:50.268Z,93.90
2017-12-27T22:22:28.307Z,94.00
2017-12-27T22:24:56.507Z,94.00
2017-12-27T22:27:33.952Z,94.00
2017-12-27T22:30:01.384Z,94.00
2017-12-27T22:32:28.843Z,94.10
2017-12-27T22:34:56.280Z,94.10
2017-12-27T22:37:25.292Z,94.10
2017-12-27T22:39:52.732Z,94.20
2017-12-27T22:42:20.172Z,94.30
2017-12-27T22:44:47.687Z,94.30
2017-12-27T22:47:15.156Z,94.30
2017-12-27T22:49:42.603Z,94.30
2017-12-27T22:52:10.164Z,94.40
2017-12-27T22:54:37.600Z,94.40
2017-12-27T22:57:05.071Z,94.70
2017-12-27T22:59:32.519Z,94.40
2017-12-27T23:02:00.384Z,94.50
2017-12-27T23:04:27.821Z,94.50
2017-12-27T23:06:55.269Z,94.50
2017-12-27T23:09:22.783Z,94.60
2017-12-27T23:11:50.248Z,94.60
2017-12-27T23:14:17.812Z,94.60
2017-12-27T23:17:04.776Z,94.60
2017-12-27T23:19:32.249Z,94.60
2017-12-27T23:21:59.684Z,94.50
2017-12-27T23:24:27.195Z,94.60
2017-12-27T23:26:54.656Z,94.60
2017-12-27T23:29:22.864Z,94.50
2017-12-27T23:31:50.329Z,94.50
2017-12-27T23:34:17.772Z,94.50
2017-12-27T23:36:45.241Z,94.50
2017-12-27T23:39:12.677Z,94.50
2017-12-27T23:41:41.005Z,94.60
2017-12-27T23:44:08.452Z,94.60
2017-12-27T23:46:35.962Z,94.60
2017-12-27T23:49:04.185Z,94.70
2017-12-27T23:51:31.668Z,94.60
2017-12-27T23:53:59.103Z,94.60
2017-12-27T23:56:26.560Z,94.50
2017-12-27T23:58:54.061Z,94.50
